createdAt,value
2023-05-19T00:01:06.352Z,2.20
2023-05-19T00:03:41.307Z,2.28
2023-05-19T00:06:10.554Z,2.45
2023-05-19T00:08:40.061Z,2.45
2023-05-19T00:11:08.984Z,2.58
2023-05-19T00:13:37.856Z,2.40
2023-05-19T00:16:07.112Z,2.03
2023-05-19T00:18:35.531Z,2.20
2023-05-19T00:21:03.832Z,2.22
2023-05-19T00:23:32.235Z,2.22
2023-05-19T00:26:00.473Z,2.25
2023-05-19T00:28:28.733Z,2.30
2023-05-19T00:30:57.248Z,2.00
2023-05-19T00:33:25.577Z,2.10
2023-05-19T00:35:54.397Z,2.08
2023-05-19T00:38:22.770Z,2.08
2023-05-19T00:40:51.282Z,2.17
2023-05-19T00:43:19.579Z,2.08
2023-05-19T00:45:47.904Z,2.22
2023-05-19T00:48:16.192Z,2.25
2023-05-19T00:50:44.759Z,2.10
2023-05-19T00:53:15.151Z,2.10
2023-05-19T00:55:44.372Z,2.10
2023-05-19T00:58:13.957Z,2.40
2023-05-19T01:00:43.578Z,2.60
2023-05-19T01:03:12.325Z,2.20
2023-05-19T01:05:48.421Z,2.20
2023-05-19T01:08:17.315Z,2.55
2023-05-19T01:10:45.608Z,2.30
2023-05-19T01:13:13.973Z,2.30
2023-05-19T01:16:02.291Z,2.17
2023-05-19T01:18:48.161Z,2.13
2023-05-19T01:21:27.560Z,2.20
2023-05-19T01:24:23.742Z,2.50
2023-05-19T01:26:54.557Z,2.30
2023-05-19T01:29:34.688Z,2.20
2023-05-19T01:32:08.308Z,2.50
2023-05-19T01:34:43.844Z,2.40
2023-05-19T01:37:16.222Z,2.25
2023-05-19T01:39:46.537Z,2.25
2023-05-19T01:42:16.348Z,2.30
2023-05-19T01:44:45.679Z,2.08
2023-05-19T01:47:15.475Z,2.80
2023-05-19T01:49:43.801Z,2.40
2023-05-19T01:52:12.155Z,2.42
2023-05-19T01:54:40.446Z,2.35
2023-05-19T01:57:24.322Z,2.10
2023-05-19T02:00:22.014Z,2.57
2023-05-19T02:03:19.538Z,2.20
2023-05-19T02:06:04.467Z,2.22
2023-05-19T02:11:14.025Z,2.53
2023-05-19T02:13:45.807Z,2.30
2023-05-19T02:16:15.627Z,2.38
2023-05-19T02:18:47.096Z,2.55
2023-05-19T02:21:15.488Z,2.30
2023-05-19T02:23:44.015Z,2.00
2023-05-19T02:26:12.353Z,2.55
2023-05-19T02:28:40.637Z,2.50
2023-05-19T02:31:10.916Z,2.28
2023-05-19T02:33:39.257Z,2.40
2023-05-19T02:36:08.027Z,2.58
2023-05-19T02:38:37.139Z,2.55
2023-05-19T02:41:05.431Z,3.17
2023-05-19T02:43:33.642Z,2.67
2023-05-19T02:46:01.939Z,2.63
2023-05-19T02:48:30.158Z,2.50
2023-05-19T02:50:58.411Z,2.40
2023-05-19T02:53:27.003Z,2.47
2023-05-19T02:55:55.220Z,2.50
2023-05-19T02:58:23.883Z,2.63
2023-05-19T03:00:52.436Z,2.45
2023-05-19T03:03:20.743Z,2.78
2023-05-19T03:05:49.050Z,2.78
2023-05-19T03:08:17.317Z,2.90
2023-05-19T03:10:47.687Z,3.13
2023-05-19T03:13:17.951Z,2.55
2023-05-19T03:15:46.239Z,2.50
2023-05-19T03:18:14.610Z,2.92
2023-05-19T03:20:44.517Z,2.70
2023-05-19T03:23:12.857Z,2.53
2023-05-19T03:25:41.240Z,2.70
2023-05-19T03:28:09.499Z,2.55
2023-05-19T03:30:38.087Z,3.10
2023-05-19T03:33:08.480Z,2.72
2023-05-19T03:35:36.835Z,2.50
2023-05-19T03:38:05.133Z,2.63
2023-05-19T03:40:33.562Z,2.85
2023-05-19T03:43:01.953Z,2.45
2023-05-19T03:45:30.335Z,3.10
2023-05-19T03:47:58.618Z,2.58
2023-05-19T03:50:29.968Z,2.65
2023-05-19T03:52:58.506Z,3.35
2023-05-19T03:55:27.099Z,2.72
2023-05-19T03:57:55.331Z,3.13
2023-05-19T04:00:23.789Z,3.10
2023-05-19T04:02:52.647Z,2.60
2023-05-19T04:05:20.967Z,3.05
2023-05-19T04:07:49.276Z,3.13
2023-05-19T04:10:17.719Z,2.88
2023-05-19T04:12:45.945Z,3.08
2023-05-19T04:15:14.159Z,2.60
2023-05-19T04:17:43.062Z,2.72
2023-05-19T04:20:12.002Z,3.25
2023-05-19T04:22:40.219Z,2.60
2023-05-19T04:25:09.162Z,3.33
2023-05-19T04:27:40.440Z,2.88
2023-05-19T04:30:09.330Z,2.42
2023-05-19T04:32:38.285Z,2.60
2023-05-19T04:35:06.999Z,2.60
2023-05-19T04:37:38.313Z,2.50
2023-05-19T04:40:07.302Z,2.50
2023-05-19T04:42:35.521Z,2.40
2023-05-19T04:45:06.247Z,2.90
2023-05-19T04:47:37.727Z,2.40
2023-05-19T04:50:06.727Z,2.67
2023-05-19T04:52:35.222Z,2.60
2023-05-19T04:55:03.416Z,2.83
2023-05-19T04:57:32.099Z,3.03
2023-05-19T05:00:04.042Z,3.13
2023-05-19T05:02:33.068Z,3.08
2023-05-19T05:05:01.372Z,2.90
2023-05-19T05:07:31.657Z,2.95
2023-05-19T05:10:00.687Z,3.13
2023-05-19T05:12:29.194Z,2.90
2023-05-19T05:14:57.738Z,3.08
2023-05-19T05:17:26.532Z,2.97
2023-05-19T05:19:55.368Z,2.83
2023-05-19T05:22:23.934Z,2.90
2023-05-19T05:24:52.530Z,3.05
2023-05-19T05:27:20.844Z,3.08
2023-05-19T05:29:50.613Z,3.28
2023-05-19T05:32:19.947Z,3.10
2023-05-19T05:34:48.229Z,2.97
2023-05-19T05:37:16.605Z,3.95
2023-05-19T05:39:44.846Z,2.92
2023-05-19T05:42:13.233Z,3.13
2023-05-19T05:44:41.724Z,3.20
2023-05-19T05:47:10.421Z,3.25
2023-05-19T05:49:39.957Z,2.63
2023-05-19T05:52:10.065Z,2.90
2023-05-19T05:54:38.610Z,2.90
2023-05-19T05:57:07.574Z,3.42
2023-05-19T05:59:35.888Z,3.08
2023-05-19T06:02:04.269Z,3.33
2023-05-19T06:04:32.539Z,2.97
2023-05-19T06:07:02.579Z,3.05
2023-05-19T06:09:31.195Z,2.90
2023-05-19T06:12:01.073Z,3.20
2023-05-19T06:14:29.325Z,2.80
2023-05-19T06:16:57.592Z,2.95
2023-05-19T06:19:26.279Z,2.58
2023-05-19T06:21:54.580Z,2.60
2023-05-19T06:24:22.974Z,3.15
2023-05-19T06:26:51.531Z,2.70
2023-05-19T06:29:19.818Z,2.85
2023-05-19T06:31:48.064Z,3.13
2023-05-19T06:34:18.460Z,3.17
2023-05-19T06:36:46.780Z,2.85
2023-05-19T06:39:15.063Z,2.88
2023-05-19T06:41:43.275Z,2.75
2023-05-19T06:44:11.522Z,3.10
2023-05-19T06:46:39.869Z,3.10
2023-05-19T06:49:08.145Z,2.60
2023-05-19T06:51:36.741Z,2.88
2023-05-19T06:54:05.058Z,2.75
2023-05-19T06:56:33.368Z,2.70
2023-05-19T06:59:01.566Z,3.08
2023-05-19T07:01:31.056Z,2.97
2023-05-19T07:03:59.426Z,2.88
2023-05-19T07:06:28.074Z,2.60
2023-05-19T07:08:56.419Z,2.63
2023-05-19T07:11:25.239Z,2.47
2023-05-19T07:13:53.445Z,2.67
2023-05-19T07:16:21.712Z,2.75
2023-05-19T07:18:50.111Z,2.42
2023-05-19T07:21:18.723Z,2.60
2023-05-19T07:23:46.925Z,2.67
2023-05-19T07:26:15.174Z,2.65
2023-05-19T07:28:44.315Z,2.88
2023-05-19T07:31:12.550Z,3.00
2023-05-19T07:33:40.828Z,3.25
2023-05-19T07:36:09.278Z,3.33
2023-05-19T07:38:37.582Z,2.90
2023-05-19T07:41:05.964Z,3.58
2023-05-19T07:43:34.400Z,2.78
2023-05-19T07:46:02.773Z,2.85
2023-05-19T07:48:31.386Z,2.75
2023-05-19T07:50:59.808Z,2.80
2023-05-19T07:53:28.906Z,2.80
2023-05-19T07:55:58.379Z,2.90
2023-05-19T07:58:28.352Z,3.00
2023-05-19T08:00:59.828Z,3.03
2023-05-19T08:03:28.816Z,2.72
2023-05-19T08:05:57.416Z,2.60
2023-05-19T08:08:26.007Z,2.85
2023-05-19T08:10:54.402Z,2.85
2023-05-19T08:13:22.925Z,3.60
2023-05-19T08:15:51.685Z,3.03
2023-05-19T08:18:21.066Z,2.90
2023-05-19T08:20:49.571Z,3.08
2023-05-19T08:23:18.526Z,2.95
2023-05-19T08:25:47.004Z,3.08
2023-05-19T08:28:15.515Z,3.20
2023-05-19T08:30:43.885Z,2.90
2023-05-19T08:33:12.669Z,2.97
2023-05-19T08:35:41.018Z,3.38
2023-05-19T08:38:09.344Z,3.00
2023-05-19T08:40:39.208Z,2.80
2023-05-19T08:43:07.568Z,2.60
2023-05-19T08:45:36.367Z,3.38
2023-05-19T08:48:05.258Z,2.97
2023-05-19T08:50:40.364Z,3.38
2023-05-19T08:53:28.961Z,2.95
2023-05-19T08:56:12.627Z,3.00
2023-05-19T08:58:43.433Z,3.47
2023-05-19T09:01:19.383Z,2.90
2023-05-19T09:03:50.783Z,3.03
2023-05-19T09:06:19.214Z,3.35
2023-05-19T09:08:48.018Z,2.80
2023-05-19T09:11:16.444Z,3.13
2023-05-19T09:13:44.827Z,2.75
2023-05-19T09:16:13.359Z,2.80
2023-05-19T09:18:41.779Z,3.30
2023-05-19T09:21:12.033Z,3.40
2023-05-19T09:23:40.333Z,3.47
2023-05-19T09:26:08.861Z,3.60
2023-05-19T09:28:38.550Z,3.70
2023-05-19T09:31:08.737Z,3.40
2023-05-19T09:33:39.220Z,4.45
2023-05-19T09:36:09.327Z,3.15
2023-05-19T09:38:39.263Z,3.33
2023-05-19T09:41:09.903Z,3.53
2023-05-19T09:43:38.217Z,3.50
2023-05-19T09:46:13.779Z,3.35
2023-05-19T09:48:43.271Z,3.30
2023-05-19T09:51:11.593Z,3.40
2023-05-19T09:53:40.039Z,3.70
2023-05-19T09:56:10.741Z,3.47
2023-05-19T09:58:42.750Z,3.65
2023-05-19T10:01:11.222Z,4.38
2023-05-19T10:03:40.659Z,3.47
2023-05-19T10:06:10.146Z,3.78
2023-05-19T10:08:40.676Z,4.13
2023-05-19T10:11:09.673Z,3.92
2023-05-19T10:13:39.813Z,4.03
2023-05-19T10:16:09.746Z,3.85
2023-05-19T10:18:40.133Z,3.88
2023-05-19T10:21:10.156Z,3.80
2023-05-19T10:23:39.322Z,3.70
2023-05-19T10:26:08.351Z,3.88
2023-05-19T10:28:40.698Z,4.05
2023-05-19T10:31:15.671Z,4.28
2023-05-19T10:34:22.989Z,3.90
2023-05-19T10:37:14.939Z,3.70
2023-05-19T10:39:45.657Z,3.97
2023-05-19T10:42:24.199Z,4.13
2023-05-19T10:45:10.963Z,3.95
2023-05-19T10:47:41.551Z,4.13
2023-05-19T10:50:10.060Z,4.50
2023-05-19T10:52:40.086Z,4.20
2023-05-19T10:55:18.554Z,4.55
2023-05-19T10:57:58.845Z,3.90
2023-05-19T11:00:32.717Z,4.00
2023-05-19T11:03:18.585Z,4.65
2023-05-19T11:05:47.321Z,3.30
2023-05-19T11:08:15.552Z,3.78
2023-05-19T11:10:47.091Z,4.10
2023-05-19T11:13:26.174Z,3.90
2023-05-19T11:15:54.495Z,3.90
2023-05-19T11:18:22.789Z,4.85
2023-05-19T11:20:59.173Z,4.25
2023-05-19T11:23:27.614Z,4.32
2023-05-19T11:25:55.970Z,4.32
2023-05-19T11:28:30.086Z,3.58
2023-05-19T11:31:00.838Z,4.07
2023-05-19T11:33:29.230Z,3.60
2023-05-19T11:36:01.295Z,4.18
2023-05-19T11:38:30.961Z,4.38
2023-05-19T11:40:59.194Z,4.10
2023-05-19T11:43:27.816Z,3.90
2023-05-19T11:45:56.950Z,3.88
2023-05-19T11:48:26.185Z,3.72
2023-05-19T11:50:54.768Z,4.18
2023-05-19T11:53:24.016Z,4.13
2023-05-19T11:55:52.752Z,3.83
2023-05-19T11:58:29.654Z,3.47
2023-05-19T12:00:58.002Z,4.13
2023-05-19T12:03:29.003Z,3.88
2023-05-19T12:05:57.778Z,3.72
2023-05-19T12:08:28.036Z,4.47
2023-05-19T12:10:57.138Z,4.00
2023-05-19T12:13:26.377Z,3.92
2023-05-19T12:15:54.646Z,4.05
2023-05-19T12:18:22.956Z,4.10
2023-05-19T12:20:51.980Z,4.35
2023-05-19T12:23:20.840Z,3.70
2023-05-19T12:25:50.149Z,4.43
2023-05-19T12:28:18.463Z,4.45
2023-05-19T12:30:52.697Z,4.50
2023-05-19T12:33:22.868Z,3.72
2023-05-19T12:35:51.762Z,4.18
2023-05-19T12:38:21.809Z,3.95
2023-05-19T12:40:52.156Z,4.00
2023-05-19T12:43:24.222Z,3.95
2023-05-19T12:45:53.228Z,4.75
2023-05-19T12:48:24.500Z,4.03
2023-05-19T12:50:56.368Z,4.13
2023-05-19T12:53:29.032Z,4.88
2023-05-19T12:55:57.277Z,4.38
2023-05-19T12:58:25.643Z,4.88
2023-05-19T13:01:00.466Z,4.47
2023-05-19T13:03:28.987Z,5.43
2023-05-19T13:05:57.269Z,4.95
2023-05-19T13:08:25.887Z,4.78
2023-05-19T13:10:54.192Z,4.63
2023-05-19T13:13:22.859Z,4.30
2023-05-19T13:15:51.204Z,4.80
2023-05-19T13:18:19.544Z,4.45
2023-05-19T13:20:50.939Z,4.18
2023-05-19T13:23:19.501Z,6.05
2023-05-19T13:25:47.883Z,4.85
2023-05-19T13:28:16.254Z,5.00
2023-05-19T13:30:46.005Z,4.20
2023-05-19T13:33:14.291Z,5.40
2023-05-19T13:35:42.553Z,4.82
2023-05-19T13:38:11.226Z,4.88
2023-05-19T13:40:40.582Z,5.32
2023-05-19T13:43:09.426Z,5.60
2023-05-19T13:45:37.816Z,6.28
2023-05-19T13:48:08.040Z,6.00
2023-05-19T13:50:36.472Z,5.70
2023-05-19T13:53:04.902Z,5.60
2023-05-19T13:55:33.828Z,6.15
2023-05-19T13:58:02.111Z,5.50
2023-05-19T14:00:32.794Z,5.65
2023-05-19T14:03:01.368Z,5.78
2023-05-19T14:05:30.039Z,5.68
2023-05-19T14:07:58.840Z,6.20
2023-05-19T14:10:27.141Z,6.00
2023-05-19T14:13:25.891Z,5.75
2023-05-19T14:15:43.591Z,5.30
2023-05-19T14:18:12.271Z,5.80
2023-05-19T14:20:40.532Z,6.10
2023-05-19T14:23:08.812Z,5.03
2023-05-19T14:25:37.126Z,5.00
2023-05-19T14:28:05.516Z,5.03
2023-05-19T14:30:34.354Z,5.68
2023-05-19T14:33:02.824Z,5.50
2023-05-19T14:35:31.195Z,5.55
2023-05-19T14:37:59.441Z,5.22
2023-05-19T14:40:27.745Z,5.95
2023-05-19T14:42:56.005Z,5.55
2023-05-19T14:45:24.257Z,6.25
2023-05-19T14:47:53.558Z,6.95
2023-05-19T14:50:21.928Z,6.53
2023-05-19T14:52:50.257Z,6.03
2023-05-19T14:55:18.623Z,5.93
2023-05-19T14:57:47.358Z,5.90
2023-05-19T15:00:15.845Z,6.65
2023-05-19T15:02:44.147Z,6.10
2023-05-19T15:05:12.592Z,6.80
2023-05-19T15:07:40.831Z,6.32
2023-05-19T15:10:09.577Z,6.22
2023-05-19T15:12:37.850Z,6.55
2023-05-19T15:15:06.557Z,5.68
2023-05-19T15:17:34.838Z,5.22
2023-05-19T15:20:03.123Z,5.35
2023-05-19T15:22:31.383Z,5.18
2023-05-19T15:25:00.182Z,5.15
2023-05-19T15:27:28.890Z,5.70
2023-05-19T15:29:57.128Z,5.57
2023-05-19T15:32:25.678Z,5.00
2023-05-19T15:34:54.031Z,6.72
2023-05-19T15:37:22.240Z,8.07
2023-05-19T15:39:50.610Z,5.63
2023-05-19T15:42:18.842Z,5.70
2023-05-19T15:44:47.182Z,5.32
2023-05-19T15:47:15.421Z,4.88
2023-05-19T15:49:43.948Z,4.78
2023-05-19T15:52:12.228Z,4.82
2023-05-19T15:54:40.439Z,5.05
2023-05-19T15:57:08.820Z,4.22
2023-05-19T15:59:37.056Z,4.50
2023-05-19T16:02:05.434Z,4.30
2023-05-19T16:04:34.202Z,4.10
2023-05-19T16:07:02.471Z,4.68
2023-05-19T16:09:30.703Z,4.38
2023-05-19T16:11:58.971Z,3.92
2023-05-19T16:14:30.207Z,4.35
2023-05-19T16:16:58.508Z,4.03
2023-05-19T16:19:29.399Z,3.95
2023-05-19T16:21:57.687Z,4.18
2023-05-19T16:24:26.041Z,3.70
2023-05-19T16:26:54.529Z,4.47
2023-05-19T16:29:22.783Z,4.25
2023-05-19T16:31:51.654Z,3.83
2023-05-19T16:34:19.905Z,4.10
2023-05-19T16:36:48.179Z,4.43
2023-05-19T16:39:16.556Z,4.00
2023-05-19T16:41:44.806Z,4.55
2023-05-19T16:44:15.206Z,3.80
2023-05-19T16:46:43.518Z,3.85
2023-05-19T16:49:12.046Z,4.05
2023-05-19T16:51:40.340Z,4.32
2023-05-19T16:54:08.594Z,3.90
2023-05-19T16:56:36.975Z,3.78
2023-05-19T16:59:05.309Z,3.70
2023-05-19T17:01:33.698Z,4.07
2023-05-19T17:04:01.997Z,4.22
2023-05-19T17:06:30.383Z,3.97
2023-05-19T17:08:58.659Z,3.35
2023-05-19T17:11:28.005Z,3.95
2023-05-19T17:13:56.293Z,3.70
2023-05-19T17:16:24.798Z,3.63
2023-05-19T17:18:53.188Z,3.70
2023-05-19T17:21:21.446Z,3.70
2023-05-19T17:23:50.290Z,3.90
2023-05-19T17:26:18.544Z,3.65
2023-05-19T17:28:46.896Z,3.90
2023-05-19T17:31:16.705Z,3.25
2023-05-19T17:33:45.002Z,3.60
2023-05-19T17:36:13.306Z,3.63
2023-05-19T17:38:42.657Z,3.15
2023-05-19T17:41:11.105Z,3.67
2023-05-19T17:43:40.616Z,2.72
2023-05-19T17:46:09.602Z,3.25
2023-05-19T17:48:38.043Z,3.70
2023-05-19T17:51:08.252Z,3.58
2023-05-19T17:53:37.388Z,3.70
2023-05-19T17:56:08.153Z,3.70
2023-05-19T17:58:37.203Z,3.38
2023-05-19T18:01:05.906Z,3.58
2023-05-19T18:03:34.724Z,3.60
2023-05-19T18:06:03.410Z,3.60
2023-05-19T18:08:33.436Z,3.63
2023-05-19T18:11:01.962Z,3.90
2023-05-19T18:13:30.200Z,3.92
2023-05-19T18:16:00.497Z,3.50
2023-05-19T18:18:28.742Z,3.83
2023-05-19T18:20:56.998Z,3.50
2023-05-19T18:23:25.246Z,3.60
2023-05-19T18:25:54.346Z,3.55
2023-05-19T18:28:24.957Z,3.50
2023-05-19T18:31:06.628Z,3.22
2023-05-19T18:33:34.895Z,3.40
2023-05-19T18:36:03.330Z,3.20
2023-05-19T18:38:31.586Z,3.60
2023-05-19T18:41:01.586Z,3.40
2023-05-19T18:43:30.979Z,3.33
2023-05-19T18:45:59.406Z,3.45
2023-05-19T18:48:27.992Z,3.63
2023-05-19T18:50:56.199Z,3.75
2023-05-19T18:53:24.452Z,3.10
2023-05-19T18:55:53.090Z,3.20
2023-05-19T18:58:21.478Z,3.08
2023-05-19T19:00:49.795Z,3.70
2023-05-19T19:03:18.426Z,3.53
2023-05-19T19:05:46.980Z,3.08
2023-05-19T19:08:15.288Z,3.42
2023-05-19T19:10:43.891Z,3.55
2023-05-19T19:13:12.172Z,3.30
2023-05-19T19:15:40.690Z,3.50
2023-05-19T19:18:09.345Z,3.90
2023-05-19T19:20:37.659Z,3.88
2023-05-19T19:23:07.448Z,3.50
2023-05-19T19:25:35.871Z,4.00
2023-05-19T19:28:04.484Z,3.90
2023-05-19T19:30:32.960Z,3.60
2023-05-19T19:33:01.533Z,3.80
2023-05-19T19:35:29.841Z,3.92
2023-05-19T19:37:59.502Z,3.50
2023-05-19T19:40:27.867Z,3.42
2023-05-19T19:42:56.340Z,3.10
2023-05-19T19:45:24.620Z,2.95
2023-05-19T19:47:53.372Z,3.40
2023-05-19T19:50:22.636Z,3.10
2023-05-19T19:52:51.052Z,3.47
2023-05-19T19:55:19.327Z,3.45
2023-05-19T19:57:49.970Z,3.80
2023-05-19T20:00:19.030Z,3.50
2023-05-19T20:03:03.468Z,3.05
2023-05-19T20:05:33.344Z,3.15
2023-05-19T20:08:01.798Z,3.50
2023-05-19T20:10:30.098Z,4.07
2023-05-19T20:12:59.983Z,3.40
2023-05-19T20:15:28.268Z,3.50
2023-05-19T20:17:56.589Z,3.28
2023-05-19T20:20:24.910Z,3.72
2023-05-19T20:22:53.162Z,3.47
2023-05-19T20:25:21.759Z,3.85
2023-05-19T20:27:50.242Z,3.47
2023-05-19T20:30:18.727Z,3.60
2023-05-19T20:32:47.429Z,4.25
2023-05-19T20:35:15.936Z,3.20
2023-05-19T20:37:44.174Z,3.50
2023-05-19T20:40:12.714Z,4.22
2023-05-19T20:42:41.835Z,3.30
2023-05-19T20:45:10.393Z,3.33
2023-05-19T20:47:39.017Z,3.47
2023-05-19T20:50:07.734Z,3.25
2023-05-19T20:52:36.021Z,3.38
2023-05-19T20:55:04.574Z,3.75
2023-05-19T20:57:33.116Z,3.30
2023-05-19T21:00:01.517Z,3.50
2023-05-19T21:02:29.803Z,3.10
2023-05-19T21:04:58.119Z,3.25
2023-05-19T21:07:26.786Z,2.72
2023-05-19T21:09:55.256Z,3.03
2023-05-19T21:12:25.966Z,2.80
2023-05-19T21:14:54.269Z,2.67
2023-05-19T21:17:22.578Z,2.97
2023-05-19T21:19:50.926Z,2.80
2023-05-19T21:22:19.226Z,2.58
2023-05-19T21:24:47.553Z,2.38
2023-05-19T21:27:15.821Z,2.92
2023-05-19T21:29:44.072Z,2.97
2023-05-19T21:32:12.336Z,2.67
2023-05-19T21:34:40.647Z,3.55
2023-05-19T21:37:08.892Z,3.08
2023-05-19T21:39:37.160Z,2.42
2023-05-19T21:42:05.706Z,2.53
2023-05-19T21:44:34.020Z,2.15
2023-05-19T21:47:02.278Z,2.38
2023-05-19T21:49:30.720Z,2.50
2023-05-19T21:51:58.978Z,2.38
2023-05-19T21:54:27.338Z,2.58
2023-05-19T21:56:55.563Z,2.70
2023-05-19T21:59:25.494Z,2.40
2023-05-19T22:01:54.101Z,3.17
2023-05-19T22:04:23.451Z,2.60
2023-05-19T22:06:52.036Z,2.30
2023-05-19T22:09:20.305Z,2.70
2023-05-19T22:11:48.617Z,2.40
2023-05-19T22:14:19.162Z,2.45
2023-05-19T22:16:48.382Z,2.30
2023-05-19T22:19:16.970Z,2.65
2023-05-19T22:21:45.260Z,2.20
2023-05-19T22:24:13.501Z,2.45
2023-05-19T22:26:43.654Z,2.20
2023-05-19T22:29:15.981Z,2.45
2023-05-19T22:31:44.292Z,2.10
2023-05-19T22:34:16.259Z,2.22
2023-05-19T22:36:46.803Z,2.45
2023-05-19T22:39:15.234Z,2.10
2023-05-19T22:41:43.482Z,2.45
2023-05-19T22:44:13.876Z,2.13
2023-05-19T22:46:42.204Z,2.05
2023-05-19T22:49:10.476Z,2.20
2023-05-19T22:51:40.131Z,2.72
2023-05-19T22:54:08.674Z,2.13
2023-05-19T22:56:37.138Z,2.20
2023-05-19T22:59:05.645Z,2.20
2023-05-19T23:01:33.994Z,1.80
2023-05-19T23:04:02.380Z,2.03
2023-05-19T23:06:30.650Z,2.00
2023-05-19T23:09:03.438Z,2.00
2023-05-19T23:11:32.044Z,2.33
2023-05-19T23:14:00.266Z,2.25
2023-05-19T23:16:28.617Z,2.30
2023-05-19T23:18:57.009Z,2.10
2023-05-19T23:21:25.414Z,2.30
2023-05-19T23:23:53.672Z,2.03
2023-05-19T23:26:22.509Z,2.20
2023-05-19T23:28:51.539Z,2.50
2023-05-19T23:31:19.918Z,2.17
2023-05-19T23:33:48.233Z,2.40
2023-05-19T23:36:17.484Z,2.60
2023-05-19T23:38:45.745Z,2.55
2023-05-19T23:41:14.066Z,2.20
2023-05-19T23:43:42.342Z,2.55
2023-05-19T23:46:10.691Z,2.20
2023-05-19T23:48:38.985Z,2.08
2023-05-19T23:51:07.340Z,2.08
2023-05-19T23:53:35.631Z,2.65
2023-05-19T23:56:03.995Z,2.10
2023-05-19T23:58:32.226Z,2.53
